M I D A S
Marine Information and Data Acquisition System
Tripno 1182 of the Zeeleeuw from 2006-12-21 07:38:37 to 2006-12-21 14:01:52
Back to CruiseResearch ActivitiesStationsMapUnderway DataData graphs

EquipmentUnitsComment
TimeDGPSUTC
LatitudeDGPSDM.mWGS84
LongitudeDGPSDM.mWGS84
HeadingGyrodeg 
SOGDGPSknotsSpeed over ground
COGDGPSdegCourse over ground
DepthEcho soundermeters200 kHz
Missing or incorrect values are displayed as -999
Navigation data collected by the RV Zeeleeuw from 2006-12-21 07:37:35 to 2006-12-21 14:10:29
Time Latitude Longitude Heading SOG COG Depth
2006-12-21 07:38:43 51°13.611 2°56.042 111 3.4 290 -999
2006-12-21 07:39:43 51°13.637 2°55.936 119 4.9 296 -999
2006-12-21 07:40:43 51°13.686 2°55.811 127.7 5.5 305 4.8
2006-12-21 07:41:42 51°13.726 2°55.717 121.8 3 302 4.6
2006-12-21 07:42:41 51°13.737 2°55.719 73.3 1.2 50 -999
2006-12-21 07:43:42 51°13.736 2°55.699 42.9 0.5 291 9.7
2006-12-21 07:44:42 51°13.791 2°55.671 341.6 6.3 335 8.9
2006-12-21 07:45:41 51°13.905 2°55.584 338.1 8.5 335 -999
2006-12-21 07:46:42 51°14.039 2°55.487 340.3 8.5 336 -999
2006-12-21 07:47:42 51°14.17 2°55.383 335.2 9.3 330 -999
2006-12-21 07:48:43 51°14.294 2°55.218 316.3 9.7 310 -999
2006-12-21 07:49:40 51°14.4 2°55.007 313.5 11.9 306 9.1
2006-12-21 07:50:39 51°14.52 2°54.741 325 12.7 320 8.6
2006-12-21 07:51:38 51°14.693 2°54.548 333.2 13.2 325 8.2
2006-12-21 07:52:39 51°14.879 2°54.347 336.2 13.2 330 8.2
2006-12-21 07:53:39 51°15.063 2°54.173 332.1 12.9 322 7.4
2006-12-21 07:54:39 51°15.244 2°53.981 337.1 13.2 327 7.9
2006-12-21 07:55:39 51°15.433 2°53.794 341.8 13.5 333 8.7
2006-12-21 07:56:38 51°15.624 2°53.611 338.5 13.7 330 9.2
2006-12-21 07:57:39 51°15.825 2°53.423 337.9 13.8 328 9.8
2006-12-21 07:58:39 51°16.02 2°53.23 339.1 13.8 328 10.4
2006-12-21 07:59:39 51°16.216 2°53.042 338.2 13.7 328 10.7
2006-12-21 08:00:38 51°16.412 2°52.872 340.2 13.6 332 10.7
2006-12-21 08:01:39 51°16.615 2°52.705 341.1 13.4 335 10.2
2006-12-21 08:02:38 51°16.815 2°52.582 348.1 12.9 342 8.5
2006-12-21 08:03:39 51°17.026 2°52.51 359.7 12.6 352 8.4
2006-12-21 08:04:39 51°17.237 2°52.471 2.5 12.8 356 8.8
2006-12-21 08:05:39 51°17.451 2°52.45 5 12.8 359 9
2006-12-21 08:06:39 51°17.663 2°52.463 9.9 12.7 4 9.1
2006-12-21 08:07:39 51°17.873 2°52.497 13.5 12.7 5 9.2
2006-12-21 08:08:39 51°18.08 2°52.548 22.4 12.5 19 9.4
2006-12-21 08:09:39 51°18.251 2°52.729 48.2 12.4 44 9.9
2006-12-21 08:10:39 51°18.369 2°52.997 62.7 12.5 61 10.1
2006-12-21 08:11:39 51°18.473 2°53.283 62.3 12.3 59 10.3
2006-12-21 08:12:39 51°18.581 2°53.562 62.2 12.4 60 10.3
2006-12-21 08:13:39 51°18.687 2°53.843 63.5 12.4 61 10.3
2006-12-21 08:14:39 51°18.79 2°54.127 64 12.3 61 10.3
2006-12-21 08:15:39 51°18.886 2°54.417 65.3 12.2 62 10.3
2006-12-21 08:16:39 51°18.978 2°54.708 67.3 12.3 64 10.3
2006-12-21 08:17:39 51°19.069 2°54.997 66.8 12.2 65 10.4
2006-12-21 08:18:39 51°19.154 2°55.292 68.9 12.2 65 10.5
2006-12-21 08:19:39 51°19.238 2°55.587 68.5 12.2 65 10.4
2006-12-21 08:20:39 51°19.322 2°55.88 68.7 12.2 66 10.1
2006-12-21 08:21:39 51°19.406 2°56.175 68.8 12.3 66 9.9
2006-12-21 08:22:39 51°19.49 2°56.472 68.8 12.3 65 9.9
2006-12-21 08:23:39 51°19.576 2°56.771 67.8 12.4 65 10
2006-12-21 08:24:39 51°19.662 2°57.071 68.2 12.5 65 9.8
2006-12-21 08:25:39 51°19.75 2°57.374 68.2 12.6 64 9.7
2006-12-21 08:26:39 51°19.84 2°57.676 67.7 12.5 64 9.7
2006-12-21 08:27:39 51°19.929 2°57.979 68.4 12.5 65 9.6
2006-12-21 08:28:39 51°20.018 2°58.284 68.7 12.7 65 9.6
2006-12-21 08:29:39 51°20.107 2°58.587 68.7 12.6 65 9.6
2006-12-21 08:30:39 51°20.196 2°58.891 68.3 12.6 66 9.6
2006-12-21 08:31:39 51°20.285 2°59.195 68.1 12.7 64 9.7
2006-12-21 08:32:39 51°20.375 2°59.502 68.1 12.7 66 9.6
2006-12-21 08:33:39 51°20.464 2°59.807 68.3 12.6 65 9.6
2006-12-21 08:34:39 51°20.554 3°0.112 68.1 12.7 65 9.7
2006-12-21 08:35:39 51°20.643 3°0.419 68.2 12.7 65 9.7
2006-12-21 08:36:39 51°20.733 3°0.726 68.6 12.8 66 9.7
2006-12-21 08:37:39 51°20.82 3°1.033 70.4 12.7 68 9.7
2006-12-21 08:38:39 51°20.894 3°1.351 73.1 12.6 70 9.8
2006-12-21 08:39:39 51°20.967 3°1.666 73.4 12.6 70 9.8
2006-12-21 08:40:39 51°21.04 3°1.978 72.4 12.6 69 9.8
2006-12-21 08:41:39 51°21.112 3°2.292 72.7 12.7 70 9.9
2006-12-21 08:42:39 51°21.187 3°2.607 72 12.6 69 10
2006-12-21 08:43:39 51°21.261 3°2.921 71.8 12.6 69 10
2006-12-21 08:44:39 51°21.335 3°3.237 72.4 12.8 69 10.1
2006-12-21 08:45:39 51°21.409 3°3.555 72.1 12.7 70 10.2
2006-12-21 08:46:39 51°21.482 3°3.874 73 12.8 71 10.3
2006-12-21 08:47:39 51°21.548 3°4.198 74.4 12.8 72 10.4
2006-12-21 08:48:39 51°21.613 3°4.522 74.9 12.8 73 10.4
2006-12-21 08:49:39 51°21.668 3°4.851 76.2 12.9 74 10.5
2006-12-21 08:50:39 51°21.724 3°5.179 77.8 12.8 75 10.6
2006-12-21 08:51:39 51°21.776 3°5.508 78.2 12.8 76 10.6
2006-12-21 08:52:39 51°21.821 3°5.839 79.1 12.7 77 10.7
2006-12-21 08:53:39 51°21.867 3°6.169 79 12.7 78 10.8
2006-12-21 08:54:39 51°21.911 3°6.499 80.3 12.7 79 10.8
2006-12-21 08:55:39 51°21.954 3°6.83 80.5 12.8 79 11
2006-12-21 08:56:39 51°21.995 3°7.164 81.2 12.9 80 11.2
2006-12-21 08:57:39 51°22.035 3°7.502 80.7 13 80 11.2
2006-12-21 08:58:39 51°22.074 3°7.843 81.5 13 79 11.2
2006-12-21 08:59:39 51°22.113 3°8.184 82 13.1 80 11.3
2006-12-21 09:00:39 51°22.154 3°8.526 81 13.1 80 11.4
2006-12-21 09:01:39 51°22.196 3°8.87 81.5 13.2 79 11.7
2006-12-21 09:02:39 51°22.236 3°9.217 81.2 13.3 79 12
2006-12-21 09:03:39 51°22.276 3°9.566 81.8 13.3 79 12.4
2006-12-21 09:04:39 51°22.318 3°9.916 81.9 13.4 80 12.9
2006-12-21 09:05:39 51°22.358 3°10.269 81.4 13.6 79 14.2
2006-12-21 09:06:39 51°22.405 3°10.625 81.9 13.6 78 18.1
2006-12-21 09:07:39 51°22.45 3°10.978 81.7 13.5 79 14.8
2006-12-21 09:08:39 51°22.494 3°11.331 81.8 13.6 80 14.7
2006-12-21 09:09:39 51°22.57 3°11.67 68.1 13.4 64 14.1
2006-12-21 09:10:39 51°22.71 3°11.951 51 13.6 44 13.1
2006-12-21 09:11:39 51°22.876 3°12.188 46.3 13.3 41 12
2006-12-21 09:12:39 51°23.04 3°12.425 46.6 13.3 42 11
2006-12-21 09:13:39 51°23.202 3°12.664 47.3 13.3 42 10.7
2006-12-21 09:14:39 51°23.364 3°12.902 45.5 13.2 37 10.3
2006-12-21 09:15:39 51°23.573 3°12.968 0.6 13.4 352 10.6
2006-12-21 09:16:39 51°23.792 3°12.889 353 13.4 346 9.9
2006-12-21 09:17:39 51°24.013 3°12.808 355.9 13.7 349 12.6
2006-12-21 09:18:39 51°24.239 3°12.727 354.6 14.1 347 16.2
2006-12-21 09:19:39 51°24.468 3°12.647 355 14 348 17.8
2006-12-21 09:20:39 51°24.698 3°12.568 355.5 14.1 348 14.1
2006-12-21 09:21:39 51°24.925 3°12.498 356.5 13.5 351 11.9
2006-12-21 09:22:39 51°25.114 3°12.322 326.7 13.1 319 10.4
2006-12-21 09:23:39 51°25.19 3°12.005 278.2 13.3 269 9.6
2006-12-21 09:24:39 51°25.137 3°11.649 260.4 13.9 254 9.5
2006-12-21 09:25:39 51°25.067 3°11.294 256.7 14.1 250 9.4
2006-12-21 09:26:39 51°24.972 3°10.95 248.2 14.3 241 9.5
2006-12-21 09:27:39 51°24.882 3°10.606 262 13.8 257 8.9
2006-12-21 09:28:39 51°24.816 3°10.253 256.6 13.9 250 8.9
2006-12-21 09:29:39 51°24.74 3°9.9 257 14 253 9
2006-12-21 09:30:39 51°24.675 3°9.541 260.1 14.1 254 9.2
2006-12-21 09:31:39 51°24.618 3°9.177 264.4 14 258 9.5
2006-12-21 09:32:39 51°24.582 3°8.808 270.9 14 265 9.7
2006-12-21 09:33:39 51°24.562 3°8.436 271.6 14 265 10
2006-12-21 09:34:39 51°24.569 3°8.064 281.1 14 274 10.2
2006-12-21 09:35:39 51°24.614 3°7.708 302.1 13.5 298 10.5
2006-12-21 09:36:39 51°24.78 3°7.49 342 13 334 10.1
2006-12-21 09:37:39 51°24.974 3°7.342 342.1 12.9 333 9.2
2006-12-21 09:38:39 51°25.163 3°7.193 343.5 12.7 334 8.7
2006-12-21 09:39:39 51°25.359 3°7.06 346.9 12.9 339 9.3
2006-12-21 09:40:39 51°25.561 3°6.944 348.2 12.9 340 9.8
2006-12-21 09:41:39 51°25.763 3°6.83 351 12.8 342 9.6
2006-12-21 09:42:39 51°25.966 3°6.746 5.6 12.4 2 9.8
2006-12-21 09:43:39 51°26.157 3°6.867 37.2 12.5 35 9.9
2006-12-21 09:44:39 51°26.313 3°7.088 48.6 12.7 46 10.5
2006-12-21 09:45:39 51°26.432 3°7.366 61.2 12.7 60 10.1
2006-12-21 09:46:39 51°26.537 3°7.658 60.2 12.6 56 9.5
2006-12-21 09:47:39 51°26.665 3°7.927 55.5 12.7 52 10.3
2006-12-21 09:48:39 51°26.793 3°8.197 55.5 12.8 53 11.4
2006-12-21 09:49:39 51°26.913 3°8.476 60.3 12.7 58 11.5
2006-12-21 09:50:39 51°27.044 3°8.729 41.1 12.1 32 11.5
2006-12-21 09:51:39 51°27.242 3°8.735 355.2 12.6 343 12.1
2006-12-21 09:52:39 51°27.429 3°8.574 339.6 13 328 12.5
2006-12-21 09:53:39 51°27.613 3°8.39 339.5 13.1 328 12.8
2006-12-21 09:54:39 51°27.796 3°8.202 338.2 13.1 327 12.5
2006-12-21 09:55:39 51°27.98 3°8.015 338.5 13.1 328 11.7
2006-12-21 09:56:39 51°28.164 3°7.823 338.2 13.3 327 13.6
2006-12-21 09:57:39 51°28.349 3°7.63 337.7 13.3 326 14.5
2006-12-21 09:58:39 51°28.533 3°7.434 337 13.3 326 15.3
2006-12-21 09:59:39 51°28.717 3°7.241 336.9 13.2 326 16
2006-12-21 10:00:39 51°28.901 3°7.046 336.4 13.3 326 16.3
2006-12-21 10:01:39 51°29.085 3°6.85 337.2 13.4 326 17.2
2006-12-21 10:02:39 51°29.271 3°6.657 337.9 13.3 327 18.1
2006-12-21 10:03:39 51°29.459 3°6.467 339 13.4 328 19.8
2006-12-21 10:04:39 51°29.65 3°6.282 338.9 13.4 328 21.7
2006-12-21 10:05:39 51°29.769 3°6.273 55.3 4.9 59 22.8
2006-12-21 10:06:39 51°29.773 3°6.401 86.5 6.3 87 22.5
2006-12-21 10:07:39 51°29.737 3°6.582 129.8 8.2 138 21.5
2006-12-21 10:08:39 51°29.619 3°6.648 166.2 7.1 169 20.6
2006-12-21 10:09:39 51°29.511 3°6.71 153.1 6.9 159 19.7
2006-12-21 10:10:39 51°29.43 3°6.784 128.4 4.9 137 19.1
2006-12-21 10:11:39 51°29.404 3°6.955 79 9 73 18.5
2006-12-21 10:12:39 51°29.552 3°7.036 351.7 11.7 334 18.8
2006-12-21 10:13:39 51°29.691 3°6.78 328.2 13.1 320 20.6
2006-12-21 10:14:39 51°29.858 3°6.546 329.1 13.4 319 22.4
2006-12-21 10:15:39 51°30.027 3°6.311 329.3 13.5 320 23.7
2006-12-21 10:16:39 51°30.199 3°6.079 330 13.5 321 23.5
2006-12-21 10:17:39 51°30.371 3°5.848 330 13.5 320 24.1
2006-12-21 10:18:39 51°30.542 3°5.615 329.9 13.5 319 22.4
2006-12-21 10:19:39 51°30.716 3°5.385 331.4 13.6 321 23.1
2006-12-21 10:20:39 51°30.892 3°5.163 333.1 13.5 323 25
2006-12-21 10:21:39 51°31.076 3°4.956 336 13.6 326 27.6
2006-12-21 10:22:39 51°31.265 3°4.758 336.5 13.4 327 27.6
2006-12-21 10:23:39 51°31.455 3°4.567 337.5 13.5 328 28.6
2006-12-21 10:24:39 51°31.65 3°4.389 339.3 13.5 331 28.5
2006-12-21 10:25:39 51°31.848 3°4.215 339.5 13.6 332 29.1
2006-12-21 10:26:39 51°32.045 3°4.046 339.5 13.4 333 29.9
2006-12-21 10:27:39 51°32.244 3°3.882 339.3 13.3 333 28.9
2006-12-21 10:28:39 51°32.443 3°3.726 339.2 13.4 334 32.1
2006-12-21 10:29:39 51°32.639 3°3.562 329.5 12.9 317 28.4
2006-12-21 10:30:39 51°32.592 3°3.294 211.9 12.3 199 26.8
2006-12-21 10:31:39 51°32.409 3°3.386 145.5 11.1 146 30.1
2006-12-21 10:32:39 51°32.289 3°3.569 133.3 8.7 135 30
2006-12-21 10:33:40 51°32.211 3°3.67 154.7 2.7 164 28.6
2006-12-21 10:34:42 51°32.218 3°3.677 194.5 1.3 183 -999
2006-12-21 10:35:42 51°32.187 3°3.644 252.5 0.9 194 29.7
2006-12-21 10:36:43 51°32.173 3°3.65 290.6 1.4 246 -999
2006-12-21 10:37:40 51°32.174 3°3.613 319.4 0.6 253 30.4
2006-12-21 10:38:40 51°32.171 3°3.597 332.2 0.7 254 30.6
2006-12-21 10:39:40 51°32.209 3°3.519 311.9 7.9 307 30.3
2006-12-21 10:40:40 51°32.318 3°3.274 307.4 13.2 301 30.5
2006-12-21 10:41:40 51°32.4 3°2.942 287.6 13.7 281 27.9
2006-12-21 10:42:40 51°32.426 3°2.577 281.6 13.8 275 26
2006-12-21 10:43:40 51°32.447 3°2.211 281.5 13.7 274 24.1
2006-12-21 10:44:40 51°32.458 3°1.843 279.4 13.7 274 23.1
2006-12-21 10:45:40 51°32.468 3°1.475 280.3 13.9 272 22.8
2006-12-21 10:46:40 51°32.48 3°1.105 279.8 13.8 274 25.8
2006-12-21 10:47:40 51°32.452 3°0.736 264.1 14.1 258 26.9
2006-12-21 10:48:40 51°32.402 3°0.37 264 14.1 260 29.2
2006-12-21 10:49:40 51°32.354 3°0.002 263.8 14.1 259 31.5
2006-12-21 10:50:40 51°32.307 2°59.636 263.8 14 260 33.3
2006-12-21 10:51:40 51°32.263 2°59.272 263.9 14 260 34.6
2006-12-21 10:52:40 51°32.22 2°58.907 264.7 14 259 35.8
2006-12-21 10:53:40 51°32.178 2°58.542 265.5 13.8 259 35
2006-12-21 10:54:40 51°32.135 2°58.179 264.8 13.8 257 28.5
2006-12-21 10:55:40 51°32.128 2°57.822 288.5 13.2 285 16.9
2006-12-21 10:56:40 51°32.209 2°57.497 300.8 13.1 296 17.6
2006-12-21 10:57:40 51°32.33 2°57.213 322.9 12.8 320 19.4
2006-12-21 10:58:40 51°32.533 2°57.166 13.9 12.9 13 21.1
2006-12-21 10:59:40 51°32.705 2°57.366 55.8 13.3 58 21.5
2006-12-21 11:00:40 51°32.814 2°57.682 63.2 13.6 62 17.8
2006-12-21 11:01:40 51°32.937 2°57.985 55.1 13.5 52 18.7
2006-12-21 11:02:40 51°33.072 2°58.273 54.1 13.4 51 19.3
2006-12-21 11:03:40 51°33.222 2°58.538 48.6 13.5 47 16.7
2006-12-21 11:04:40 51°33.374 2°58.803 49.2 13.5 47 19.3
2006-12-21 11:05:40 51°33.525 2°59.067 50.1 13.4 47 17.3
2006-12-21 11:06:40 51°33.675 2°59.331 49.6 13.3 47 18.3
2006-12-21 11:07:40 51°33.838 2°59.574 43.6 13.3 42 18.5
2006-12-21 11:08:40 51°34.004 2°59.81 42.9 13.3 41 18.6
2006-12-21 11:09:40 51°34.171 3°0.047 44 13.3 42 18.4
2006-12-21 11:10:40 51°34.346 3°0.256 28.3 13 24 17.8
2006-12-21 11:11:40 51°34.551 3°0.262 345.7 12.7 336 20.7
2006-12-21 11:12:40 51°34.71 3°0.03 318.1 13.1 312 26.2
2006-12-21 11:13:40 51°34.824 2°59.731 299.7 13.4 292 27.9
2006-12-21 11:14:40 51°34.885 2°59.389 284.3 13.5 275 29.1
2006-12-21 11:15:40 51°34.803 2°59.059 245.3 13.7 238 29.3
2006-12-21 11:16:40 51°34.681 2°58.747 243.8 13.8 238 29
2006-12-21 11:17:40 51°34.56 2°58.436 244.9 13.6 238 29
2006-12-21 11:18:40 51°34.44 2°58.125 244.7 13.7 240 28.7
2006-12-21 11:19:40 51°34.321 2°57.812 244.7 13.9 240 28.7
2006-12-21 11:20:40 51°34.203 2°57.498 245.5 13.6 238 29.1
2006-12-21 11:21:40 51°34.085 2°57.184 245.7 13.6 241 30.8
2006-12-21 11:22:40 51°33.969 2°56.872 245 13.6 239 30
2006-12-21 11:23:40 51°33.852 2°56.562 244.6 13.5 235 29.9
2006-12-21 11:24:40 51°33.727 2°56.261 241.9 13.6 235 30.5
2006-12-21 11:25:40 51°33.603 2°55.962 242.4 13.6 235 29.7
2006-12-21 11:26:40 51°33.478 2°55.663 242.5 13.4 237 27.6
2006-12-21 11:27:40 51°33.354 2°55.367 242.4 13.4 235 28.8
2006-12-21 11:28:40 51°33.229 2°55.071 242 13.5 237 24.4
2006-12-21 11:29:40 51°33.107 2°54.774 243.5 13.2 237 27.8
2006-12-21 11:30:40 51°32.986 2°54.48 241.8 13.2 238 27
2006-12-21 11:31:40 51°32.866 2°54.183 242.8 13.5 237 26.3
2006-12-21 11:32:40 51°32.741 2°53.893 239.9 13.2 235 26.1
2006-12-21 11:33:40 51°32.614 2°53.606 240.2 13.2 235 25.7
2006-12-21 11:34:40 51°32.488 2°53.319 240.2 13.2 234 26.4
2006-12-21 11:35:40 51°32.365 2°53.031 240.2 13.1 236 26.4
2006-12-21 11:36:40 51°32.241 2°52.746 240.2 13.1 234 24.4
2006-12-21 11:37:40 51°32.119 2°52.46 240 13.1 236 26.8
2006-12-21 11:38:40 51°31.996 2°52.17 240.9 13 236 26.3
2006-12-21 11:39:40 51°31.874 2°51.883 240.5 13 236 28.8
2006-12-21 11:40:40 51°31.753 2°51.593 240.9 13.1 237 29.2
2006-12-21 11:41:40 51°31.634 2°51.305 240.2 12.9 236 29
2006-12-21 11:42:40 51°31.514 2°51.017 240.3 13 238 27.4
2006-12-21 11:43:40 51°31.396 2°50.727 240.5 13 238 29.9
2006-12-21 11:44:40 51°31.277 2°50.438 239.8 13 238 29.2
2006-12-21 11:45:40 51°31.16 2°50.15 240.2 12.7 237 27.7
2006-12-21 11:46:40 51°31.047 2°49.861 242.7 12.9 241 27.5
2006-12-21 11:47:40 51°30.946 2°49.561 244.5 12.6 241 26.2
2006-12-21 11:48:40 51°30.847 2°49.26 245.3 12.6 242 29.3
2006-12-21 11:49:40 51°30.75 2°48.958 244.1 12.9 244 25.5
2006-12-21 11:50:40 51°30.654 2°48.659 244.9 12.7 244 27.7
2006-12-21 11:51:40 51°30.552 2°48.365 241.1 12.4 239 28.9
2006-12-21 11:52:40 51°30.442 2°48.079 240.5 12.5 240 27.8
2006-12-21 11:53:40 51°30.333 2°47.794 239 12.6 238 26.7
2006-12-21 11:54:40 51°30.225 2°47.508 239.9 12.5 238 27.1
2006-12-21 11:55:40 51°30.137 2°47.208 250.8 12.5 251 24.6
2006-12-21 11:56:40 51°30.103 2°46.878 263.2 12.6 266 28.2
2006-12-21 11:57:40 51°30.167 2°46.563 303 13 312 25.6
2006-12-21 11:58:39 51°30.349 2°46.367 326.8 13.7 331 26.7
2006-12-21 11:59:40 51°30.55 2°46.185 327.9 13.7 331 31.3
2006-12-21 12:00:40 51°30.758 2°46.098 12.8 13.4 25 34.7
2006-12-21 12:01:40 51°30.909 2°46.395 63.5 15 63 28.9
2006-12-21 12:02:40 51°31.001 2°46.77 71.8 15.2 70 30.2
2006-12-21 12:03:40 51°31.108 2°47.136 62.5 15.3 60 30.2
2006-12-21 12:04:40 51°31.234 2°47.487 61.1 15.2 59 31.4
2006-12-21 12:05:40 51°31.36 2°47.836 62.4 15.1 60 33.1
2006-12-21 12:06:40 51°31.486 2°48.184 61.9 15 60 32.7
2006-12-21 12:07:40 51°31.614 2°48.532 61.9 15.1 58 33.9
2006-12-21 12:08:40 51°31.739 2°48.881 62 15.2 60 33.1
2006-12-21 12:09:40 51°31.867 2°49.231 62.4 15.1 59 32.4
2006-12-21 12:10:40 51°31.994 2°49.58 62.4 15.2 59 33
2006-12-21 12:11:40 51°32.123 2°49.927 62 15.1 60 32.7
2006-12-21 12:12:40 51°32.25 2°50.276 62.5 15.1 60 33
2006-12-21 12:13:40 51°32.378 2°50.624 62.6 15.1 59 33.1
2006-12-21 12:14:40 51°32.506 2°50.969 62.4 15.1 59 30.6
2006-12-21 12:15:40 51°32.636 2°51.313 62.5 15 59 32.2
2006-12-21 12:16:40 51°32.765 2°51.659 62.4 15.1 58 33.5
2006-12-21 12:17:40 51°32.895 2°52.003 62.3 15.1 58 32.8
2006-12-21 12:18:40 51°33.026 2°52.347 62.8 15.1 59 29.8
2006-12-21 12:19:40 51°33.156 2°52.694 63.7 15.2 62 29.5
2006-12-21 12:20:40 51°33.242 2°53.073 83 14.9 83 30.2
2006-12-21 12:21:40 51°33.22 2°53.466 109.8 14.6 104 31.2
2006-12-21 12:22:40 51°33.108 2°53.806 132.4 14.5 127 29.4
2006-12-21 12:23:39 51°32.95 2°54.076 145.8 14 138 28.4
2006-12-21 12:24:39 51°32.772 2°54.317 149.3 14 142 24.9
2006-12-21 12:25:39 51°32.595 2°54.562 147.1 13.9 139 24.5
2006-12-21 12:26:40 51°32.408 2°54.791 152.6 13.9 145 22
2006-12-21 12:27:39 51°32.22 2°54.988 157.8 13.5 150 24.6
2006-12-21 12:28:39 51°32.026 2°55.183 156.7 13.9 147 24.2
2006-12-21 12:29:40 51°31.831 2°55.385 155 13.9 146 18.8
2006-12-21 12:30:39 51°31.641 2°55.581 156.2 13.7 148 20.4
2006-12-21 12:31:40 51°31.44 2°55.768 159.8 13.7 150 18.8
2006-12-21 12:32:40 51°31.242 2°55.943 159.1 13.5 152 22.2
2006-12-21 12:33:40 51°31.042 2°56.118 162 13.4 153 33.3
2006-12-21 12:34:40 51°30.839 2°56.268 169.6 13.3 161 35.9
2006-12-21 12:35:40 51°30.629 2°56.331 180.5 12.6 173 34.3
2006-12-21 12:36:40 51°30.423 2°56.307 194 12.5 185 32.9
2006-12-21 12:37:40 51°30.213 2°56.296 190.2 12.7 182 33.2
2006-12-21 12:38:40 51°30.005 2°56.288 190.3 12.6 182 31.9
2006-12-21 12:39:40 51°29.834 2°56.139 235.1 11.9 237 30.5
2006-12-21 12:40:40 51°29.87 2°55.859 309 11.2 315 31.8
2006-12-21 12:41:40 51°30.008 2°55.72 326.3 7.8 337 32.9
2006-12-21 12:42:40 51°30.106 2°55.669 323 6.5 329 33.4
2006-12-21 12:43:40 51°30.103 2°55.493 235.8 9.1 226 33.3
2006-12-21 12:44:39 51°29.922 2°55.448 187.9 12.5 178 32.3
2006-12-21 12:45:40 51°29.709 2°55.454 189.1 12.6 180 30.9
2006-12-21 12:46:40 51°29.499 2°55.455 189.1 12.8 178 29.9
2006-12-21 12:47:40 51°29.288 2°55.459 188.6 12.7 181 28.4
2006-12-21 12:48:40 51°29.078 2°55.457 189.9 12.5 181 27.8
2006-12-21 12:49:40 51°28.87 2°55.451 188.2 12.7 182 25
2006-12-21 12:50:40 51°28.66 2°55.444 188.4 12.6 180 25.3
2006-12-21 12:51:40 51°28.45 2°55.435 188.5 12.8 181 25.4
2006-12-21 12:52:40 51°28.241 2°55.428 189.6 12.6 182 28.5
2006-12-21 12:53:40 51°28.032 2°55.422 189.7 12.5 181 29.9
2006-12-21 12:54:40 51°27.822 2°55.416 189.3 12.9 180 30
2006-12-21 12:55:40 51°27.612 2°55.411 189.5 12.7 181 30.7
2006-12-21 12:56:40 51°27.404 2°55.411 188.5 12.5 179 30.5
2006-12-21 12:57:40 51°27.199 2°55.402 191.3 12 184 31.4
2006-12-21 12:58:40 51°26.997 2°55.372 192.7 12.3 185 30.7
2006-12-21 12:59:40 51°26.795 2°55.339 194.7 12.2 187 29.6
2006-12-21 13:00:40 51°26.596 2°55.293 196.4 11.9 187 26.2
2006-12-21 13:01:40 51°26.397 2°55.236 199.5 12.1 193 27.2
2006-12-21 13:02:40 51°26.198 2°55.171 198.8 12.1 190 26.6
2006-12-21 13:03:40 51°25.997 2°55.11 198 12.4 191 24.3
2006-12-21 13:04:40 51°25.797 2°55.046 197.1 12.5 190 22.8
2006-12-21 13:05:40 51°25.59 2°55.007 192.3 12.5 187 21
2006-12-21 13:06:40 51°25.383 2°54.967 193.7 12.6 187 20.4
2006-12-21 13:07:40 51°25.175 2°54.932 193.1 12.8 186 22
2006-12-21 13:08:40 51°24.967 2°54.895 193.2 12.7 187 21.5
2006-12-21 13:09:40 51°24.759 2°54.856 193.1 12.7 185 22
2006-12-21 13:10:40 51°24.551 2°54.819 193.4 12.4 185 24.6
2006-12-21 13:11:40 51°24.345 2°54.785 193 12.3 186 24.5
2006-12-21 13:12:40 51°24.14 2°54.75 193.1 12.1 186 24.3
2006-12-21 13:13:40 51°23.937 2°54.712 193 12.5 187 23.2
2006-12-21 13:14:40 51°23.733 2°54.676 192.3 12.2 184 23
2006-12-21 13:15:40 51°23.53 2°54.638 193.6 12.3 186 22.1
2006-12-21 13:16:40 51°23.327 2°54.597 193.9 12.3 187 19.2
2006-12-21 13:17:40 51°23.124 2°54.565 192.4 12.5 186 22.3
2006-12-21 13:18:40 51°22.923 2°54.522 196.2 12.1 189 23.4
2006-12-21 13:19:40 51°22.724 2°54.464 196.9 12.1 189 24.3
2006-12-21 13:20:40 51°22.526 2°54.404 198.1 12.1 191 22.9
2006-12-21 13:21:40 51°22.327 2°54.342 197.1 12.3 192 21.6
2006-12-21 13:22:40 51°22.126 2°54.276 196.5 12.5 189 21
2006-12-21 13:23:40 51°21.922 2°54.208 197.1 12.6 192 20.4
2006-12-21 13:24:40 51°21.717 2°54.14 196.9 12.6 192 19.6
2006-12-21 13:25:40 51°21.513 2°54.067 197.1 12.7 191 19.4
2006-12-21 13:26:40 51°21.307 2°53.994 197.2 12.6 193 19.4
2006-12-21 13:27:40 51°21.104 2°53.921 196.7 12.3 193 19.3
2006-12-21 13:28:40 51°20.901 2°53.853 196.9 12.2 191 19.2
2006-12-21 13:29:40 51°20.702 2°53.786 197.5 11.9 194 19.1
2006-12-21 13:30:40 51°20.504 2°53.719 198 12.2 190 19
2006-12-21 13:31:40 51°20.308 2°53.646 198.3 12 190 18.8
2006-12-21 13:32:40 51°20.111 2°53.571 197.2 12.4 191 18.4
2006-12-21 13:33:40 51°19.913 2°53.478 198.9 12.6 198 17.6
2006-12-21 13:34:40 51°19.715 2°53.383 201.5 12.3 197 16.9
2006-12-21 13:35:40 51°19.517 2°53.289 200.6 12.4 197 16.2
2006-12-21 13:36:40 51°19.322 2°53.193 200.1 12.4 199 15.6
2006-12-21 13:37:40 51°19.124 2°53.097 200.3 12.5 197 15
2006-12-21 13:38:40 51°18.926 2°52.996 200.1 12.6 197 14.4
2006-12-21 13:39:40 51°18.726 2°52.895 199.5 12.7 197 14.2
2006-12-21 13:40:40 51°18.528 2°52.792 200.6 12.7 198 14
2006-12-21 13:41:40 51°18.327 2°52.695 199.9 12.9 197 13.5
2006-12-21 13:42:40 51°18.126 2°52.613 194.2 12.3 190 13.3
2006-12-21 13:43:40 51°17.919 2°52.571 190 12.4 184 13.1
2006-12-21 13:44:40 51°17.711 2°52.536 189.2 12.5 185 12.9
2006-12-21 13:45:40 51°17.501 2°52.523 184.2 12.7 179 12.9
2006-12-21 13:46:40 51°17.289 2°52.562 173.9 12.9 169 12.4
2006-12-21 13:47:40 51°17.078 2°52.632 171.7 12.8 166 12
2006-12-21 13:48:40 51°16.868 2°52.711 171.3 12.9 167 11.8
2006-12-21 13:49:40 51°16.659 2°52.8 169.9 12.9 163 13.6
2006-12-21 13:50:40 51°16.452 2°52.911 166.7 13.1 159 14.5
2006-12-21 13:51:40 51°16.249 2°53.04 165 13.3 158 14.5
2006-12-21 13:52:40 51°16.046 2°53.166 165.4 13.2 159 14.3
2006-12-21 13:53:40 51°15.842 2°53.3 162.2 13.3 155 13.9
2006-12-21 13:54:40 51°15.641 2°53.446 161.1 13.1 155 13.3
2006-12-21 13:55:40 51°15.445 2°53.615 156.6 13.4 150 12.7
2006-12-21 13:56:40 51°15.256 2°53.804 153 13.5 146 12.1
2006-12-21 13:57:40 51°15.072 2°54.008 150.3 13.5 145 11.5
2006-12-21 13:58:40 51°14.887 2°54.21 150.5 13.3 145 11.6
2006-12-21 13:59:40 51°14.728 2°54.444 142.7 12.9 135 12
2006-12-21 14:00:40 51°14.572 2°54.697 140 13.8 132 12.1
2006-12-21 14:01:40 51°14.425 2°54.971 135.4 13.8 131 13
2006-12-21 14:02:41 51°14.283 2°55.226 133.3 11.3 132 12.8
2006-12-21 14:03:44 51°14.15 2°55.387 154 8.9 153 -999
2006-12-21 14:04:43 51°14.027 2°55.492 155 7.7 153 -999
2006-12-21 14:05:44 51°13.929 2°55.57 156.6 6 154 -999
2006-12-21 14:06:43 51°13.839 2°55.642 154.7 6.2 151 12.5
2006-12-21 14:07:42 51°13.751 2°55.725 149 6.3 144 4.7
2006-12-21 14:08:44 51°13.677 2°55.842 126.3 6 124 -999
2006-12-21 14:09:44 51°13.63 2°55.963 118.7 4.7 117 -999